createdAt,value
2023-05-01T00:00:33.559Z,99098.77
2023-05-01T00:01:55.357Z,99102.67
2023-05-01T00:03:18.194Z,99105.39
2023-05-01T00:04:40.056Z,99105.34
2023-05-01T00:06:01.936Z,99107.77
2023-05-01T00:07:23.313Z,99107.23
2023-05-01T00:08:45.176Z,99104.69
2023-05-01T00:10:07.197Z,99106.32
2023-05-01T00:11:28.713Z,99100.45
2023-05-01T00:12:53.168Z,99104.83
2023-05-01T00:14:14.952Z,99101.15
2023-05-01T00:15:36.585Z,99105.64
2023-05-01T00:16:58.798Z,99100.92
2023-05-01T00:18:20.496Z,99102.86
2023-05-01T00:19:42.223Z,99102.05
2023-05-01T00:21:04.167Z,99101.45
2023-05-01T00:22:39.943Z,99090.44
2023-05-01T00:24:13.448Z,99098.60
2023-05-01T00:25:34.984Z,99096.20
2023-05-01T00:26:56.651Z,99096.01
2023-05-01T00:28:25.450Z,99096.84
2023-05-01T00:29:47.409Z,99094.91
2023-05-01T00:31:11.462Z,99098.25
2023-05-01T00:32:47.667Z,99092.63
2023-05-01T00:34:11.683Z,99094.90
2023-05-01T00:35:35.668Z,99096.33
2023-05-01T00:36:59.633Z,99092.31
2023-05-01T00:38:21.443Z,99091.03
2023-05-01T00:39:45.632Z,99091.94
2023-05-01T00:41:09.345Z,99089.37
2023-05-01T00:42:33.594Z,99091.52
2023-05-01T00:43:55.582Z,99092.16
2023-05-01T00:45:19.294Z,99096.70
2023-05-01T00:46:42.655Z,99096.51
2023-05-01T00:48:05.353Z,99095.89
2023-05-01T00:49:27.083Z,99098.05
2023-05-01T00:50:48.918Z,99093.43
2023-05-01T00:52:10.709Z,99089.90
2023-05-01T00:53:32.439Z,99094.50
2023-05-01T00:54:54.041Z,99084.74
2023-05-01T00:56:18.205Z,99094.45
2023-05-01T00:57:51.844Z,99093.59
2023-05-01T00:59:13.685Z,99097.54
2023-05-01T01:00:35.438Z,99097.63
2023-05-01T01:01:59.524Z,99097.27
2023-05-01T01:03:21.400Z,99095.21
2023-05-01T01:04:43.894Z,99092.59
2023-05-01T01:06:05.704Z,99093.02
2023-05-01T01:07:27.177Z,99093.83
2023-05-01T01:08:49.118Z,99093.48
2023-05-01T01:10:11.068Z,99090.76
2023-05-01T01:11:32.619Z,99090.50
2023-05-01T01:12:54.261Z,99092.36
2023-05-01T01:14:17.048Z,99092.85
2023-05-01T01:15:38.900Z,99090.52
2023-05-01T01:17:01.096Z,99088.74
2023-05-01T01:18:22.256Z,99086.05
2023-05-01T01:19:44.341Z,99088.76
2023-05-01T01:21:06.883Z,99083.95
2023-05-01T01:22:28.816Z,99088.36
2023-05-01T01:23:50.682Z,99085.27
2023-05-01T01:25:12.678Z,99085.52
2023-05-01T01:26:34.496Z,99085.06
2023-05-01T01:27:56.765Z,99076.25
2023-05-01T01:29:18.514Z,99079.66
2023-05-01T01:30:40.762Z,99081.95
2023-05-01T01:32:02.690Z,99077.95
2023-05-01T01:33:24.318Z,99079.28
2023-05-01T01:34:48.673Z,99082.08
2023-05-01T01:36:10.688Z,99084.13
2023-05-01T01:37:39.594Z,99080.75
2023-05-01T01:39:01.444Z,99078.70
2023-05-01T01:40:23.176Z,99079.70
2023-05-01T01:41:45.336Z,99077.52
2023-05-01T01:43:07.035Z,99079.71
2023-05-01T01:44:32.575Z,99078.91
2023-05-01T01:45:54.187Z,99080.98
2023-05-01T01:47:15.885Z,99083.63
2023-05-01T01:48:37.787Z,99082.45
2023-05-01T01:49:59.718Z,99081.81
2023-05-01T01:51:21.961Z,99086.43
2023-05-01T01:52:43.963Z,99072.57
2023-05-01T01:54:06.094Z,99084.08
2023-05-01T01:55:32.929Z,99084.58
2023-05-01T01:56:54.640Z,99080.11
2023-05-01T01:58:16.895Z,99080.05
2023-05-01T01:59:39.741Z,99079.82
2023-05-01T02:01:01.706Z,99084.66
2023-05-01T02:02:23.434Z,99084.77
2023-05-01T02:03:45.735Z,99084.08
2023-05-01T02:05:07.599Z,99084.90
2023-05-01T02:06:34.303Z,99085.45
2023-05-01T02:07:56.180Z,99081.70
2023-05-01T02:09:17.958Z,99080.69
2023-05-01T02:10:39.649Z,99084.02
2023-05-01T02:12:01.700Z,99082.23
2023-05-01T02:13:24.660Z,99085.02
2023-05-01T02:14:51.310Z,99087.77
2023-05-01T02:16:13.370Z,99080.60
2023-05-01T02:17:35.167Z,99084.27
2023-05-01T02:18:57.108Z,99083.79
2023-05-01T02:20:21.288Z,99084.27
2023-05-01T02:21:45.933Z,99079.73
2023-05-01T02:23:07.909Z,99083.57
2023-05-01T02:24:29.365Z,99079.11
2023-05-01T02:25:53.563Z,99077.81
2023-05-01T02:27:15.596Z,99080.61
2023-05-01T02:28:37.397Z,99078.51
2023-05-01T02:31:20.915Z,99081.46
2023-05-01T02:32:44.197Z,99076.04
2023-05-01T02:34:06.146Z,99078.64
2023-05-01T02:35:30.189Z,99075.43
2023-05-01T02:36:52.101Z,99077.83
2023-05-01T02:38:15.048Z,99079.60
2023-05-01T02:39:36.920Z,99072.23
2023-05-01T02:40:59.047Z,99071.61
2023-05-01T02:42:20.359Z,99070.16
2023-05-01T02:43:42.292Z,99066.13
2023-05-01T02:45:06.492Z,99070.17
2023-05-01T02:46:28.193Z,99068.84
2023-05-01T02:47:50.499Z,99068.65
2023-05-01T02:49:12.207Z,99061.73
2023-05-01T02:50:33.966Z,99069.33
2023-05-01T02:51:55.924Z,99069.04
2023-05-01T02:53:18.001Z,99069.28
2023-05-01T02:54:44.811Z,99065.67
2023-05-01T02:56:07.913Z,99065.00
2023-05-01T02:57:29.478Z,99063.69
2023-05-01T02:58:54.566Z,99065.09
2023-05-01T03:00:16.752Z,99065.09
2023-05-01T03:01:39.791Z,99066.54
2023-05-01T03:03:01.627Z,99070.11
2023-05-01T03:04:23.355Z,99064.94
2023-05-01T03:05:45.657Z,99067.48
2023-05-01T03:07:08.233Z,99067.98
2023-05-01T03:08:33.042Z,99069.84
2023-05-01T03:09:55.502Z,99068.55
2023-05-01T03:11:17.844Z,99067.44
2023-05-01T03:12:41.743Z,99069.09
2023-05-01T03:14:03.757Z,99072.13
2023-05-01T03:15:25.528Z,99072.40
2023-05-01T03:16:51.813Z,99070.49
2023-05-01T03:18:13.706Z,99069.15
2023-05-01T03:19:42.660Z,99069.17
2023-05-01T03:21:04.762Z,99068.04
2023-05-01T03:22:26.529Z,99070.17
2023-05-01T03:23:51.174Z,99069.34
2023-05-01T03:25:15.849Z,99072.61
2023-05-01T03:26:37.813Z,99070.53
2023-05-01T03:27:59.833Z,99069.13
2023-05-01T03:29:21.446Z,99061.80
2023-05-01T03:30:43.330Z,99067.08
2023-05-01T03:32:05.522Z,99070.23
2023-05-01T03:33:31.756Z,99068.64
2023-05-01T03:34:56.006Z,99068.69
2023-05-01T03:36:24.848Z,99072.02
2023-05-01T03:37:47.337Z,99068.80
2023-05-01T03:39:14.862Z,99070.51
2023-05-01T03:40:57.904Z,99071.54
2023-05-01T03:42:38.278Z,99068.52
2023-05-01T03:44:07.119Z,99070.01
2023-05-01T03:45:44.726Z,99070.05
2023-05-01T03:47:07.170Z,99069.52
2023-05-01T03:48:32.667Z,99074.17
2023-05-01T03:49:58.879Z,99072.92
2023-05-01T03:51:20.900Z,99071.63
2023-05-01T03:52:43.272Z,99071.77
2023-05-01T03:54:05.328Z,99056.27
2023-05-01T03:55:34.834Z,99066.73
2023-05-01T03:56:58.723Z,99069.52
2023-05-01T03:58:23.123Z,99067.09
2023-05-01T03:59:45.351Z,99067.02
2023-05-01T04:01:07.304Z,99064.35
2023-05-01T04:02:29.766Z,99066.73
2023-05-01T04:03:52.194Z,99069.38
2023-05-01T04:05:14.559Z,99071.73
2023-05-01T04:06:39.193Z,99067.97
2023-05-01T04:08:01.240Z,99068.34
2023-05-01T04:09:22.727Z,99067.40
2023-05-01T04:10:44.886Z,99065.68
2023-05-01T04:12:06.819Z,99063.77
2023-05-01T04:13:28.567Z,99062.98
2023-05-01T04:14:58.788Z,99062.67
2023-05-01T04:16:20.584Z,99063.30
2023-05-01T04:17:50.008Z,99059.39
2023-05-01T04:19:14.385Z,99060.25
2023-05-01T04:20:37.648Z,99057.55
2023-05-01T04:22:01.864Z,99058.36
2023-05-01T04:23:24.898Z,99056.47
2023-05-01T04:24:47.355Z,99055.65
2023-05-01T04:26:09.274Z,99058.00
2023-05-01T04:27:30.827Z,99059.71
2023-05-01T04:28:52.975Z,99061.51
2023-05-01T04:30:17.143Z,99063.30
2023-05-01T04:31:46.930Z,99059.32
2023-05-01T04:33:11.757Z,99062.60
2023-05-01T04:34:33.837Z,99062.61
2023-05-01T04:35:58.800Z,99059.84
2023-05-01T04:37:23.014Z,99062.37
2023-05-01T04:38:45.139Z,99064.52
2023-05-01T04:40:09.180Z,99063.56
2023-05-01T04:41:34.978Z,99063.05
2023-05-01T04:42:59.248Z,99063.02
2023-05-01T04:44:20.735Z,99059.57
2023-05-01T04:45:42.945Z,99064.90
2023-05-01T04:47:06.245Z,99062.51
2023-05-01T04:48:28.044Z,99063.70
2023-05-01T04:49:49.542Z,99062.81
2023-05-01T04:51:15.802Z,99066.43
2023-05-01T04:52:37.662Z,99069.96
2023-05-01T04:53:59.393Z,99069.02
2023-05-01T04:55:23.716Z,99067.37
2023-05-01T04:57:19.296Z,99066.33
2023-05-01T04:58:44.380Z,99069.70
2023-05-01T05:00:08.697Z,99070.98
2023-05-01T05:01:49.971Z,99073.09
2023-05-01T05:03:11.879Z,99064.45
2023-05-01T05:04:33.854Z,99070.27
2023-05-01T05:06:03.344Z,99072.17
2023-05-01T05:07:24.838Z,99067.89
2023-05-01T05:09:09.272Z,99073.17
2023-05-01T05:10:31.029Z,99073.28
2023-05-01T05:12:14.769Z,99072.14
2023-05-01T05:13:36.637Z,99072.69
2023-05-01T05:15:06.522Z,99072.97
2023-05-01T05:16:35.731Z,99075.30
2023-05-01T05:17:57.500Z,99073.46
2023-05-01T05:19:38.196Z,99074.08
2023-05-01T05:20:59.749Z,99074.87
2023-05-01T05:22:25.949Z,99072.36
2023-05-01T05:24:21.181Z,99077.70
2023-05-01T05:25:43.265Z,99079.05
2023-05-01T05:27:07.212Z,99077.59
2023-05-01T05:28:28.996Z,99075.70
2023-05-01T05:30:01.144Z,99077.23
2023-05-01T05:31:30.649Z,99072.62
2023-05-01T05:32:52.750Z,99070.40
2023-05-01T05:34:15.268Z,99072.32
2023-05-01T05:35:39.270Z,99075.35
2023-05-01T05:37:03.277Z,99067.94
2023-05-01T05:38:27.954Z,99068.45
2023-05-01T05:39:51.769Z,99066.33
2023-05-01T05:41:15.819Z,99067.33
2023-05-01T05:42:37.725Z,99067.49
2023-05-01T05:44:03.288Z,99065.32
2023-05-01T05:45:25.971Z,99061.47
2023-05-01T05:46:47.888Z,99063.33
2023-05-01T05:48:19.940Z,99060.92
2023-05-01T05:49:47.094Z,99060.54
2023-05-01T05:51:11.400Z,99055.73
2023-05-01T05:52:45.223Z,99056.77
2023-05-01T05:54:07.710Z,99057.41
2023-05-01T05:55:45.879Z,99059.81
2023-05-01T05:57:07.560Z,99061.90
2023-05-01T05:58:42.288Z,99059.55
2023-05-01T06:00:10.067Z,99050.86
2023-05-01T06:01:49.734Z,99061.20
2023-05-01T06:03:19.471Z,99060.14
2023-05-01T06:04:41.995Z,99059.62
2023-05-01T06:06:03.971Z,99061.83
2023-05-01T06:07:26.166Z,99059.64
2023-05-01T06:08:48.241Z,99061.02
2023-05-01T06:10:10.345Z,99060.96
2023-05-01T06:11:31.839Z,99055.44
2023-05-01T06:13:02.603Z,99044.68
2023-05-01T06:14:45.930Z,99056.56
2023-05-01T06:16:07.885Z,99054.94
2023-05-01T06:17:29.127Z,99060.55
2023-05-01T06:18:53.141Z,99059.98
2023-05-01T06:20:24.294Z,99058.10
2023-05-01T06:21:49.647Z,99054.59
2023-05-01T06:23:13.574Z,99053.33
2023-05-01T06:24:40.173Z,99058.64
2023-05-01T06:26:03.324Z,99061.83
2023-05-01T06:27:27.181Z,99061.17
2023-05-01T06:29:03.513Z,99057.95
2023-05-01T06:30:27.964Z,99059.50
2023-05-01T06:31:55.597Z,99056.65
2023-05-01T06:33:22.521Z,99058.55
2023-05-01T06:34:54.021Z,99055.73
2023-05-01T06:36:29.285Z,99055.05
2023-05-01T06:37:55.922Z,99057.81
2023-05-01T06:39:22.311Z,99057.09
2023-05-01T06:40:58.805Z,99054.00
2023-05-01T06:42:22.947Z,99053.05
2023-05-01T06:43:45.069Z,99056.25
2023-05-01T06:45:08.479Z,99057.77
2023-05-01T06:46:41.794Z,99059.15
2023-05-01T06:48:04.130Z,99056.25
2023-05-01T06:49:27.697Z,99056.66
2023-05-01T06:50:51.634Z,99054.92
2023-05-01T06:52:13.867Z,99053.53
2023-05-01T06:53:36.888Z,99055.84
2023-05-01T06:55:19.609Z,99054.55
2023-05-01T06:56:41.509Z,99053.45
2023-05-01T06:58:12.640Z,99049.08
2023-05-01T06:59:44.706Z,99049.02
2023-05-01T07:01:06.498Z,99047.57
2023-05-01T07:02:27.988Z,99048.60
2023-05-01T07:03:50.083Z,99043.30
2023-05-01T07:05:11.694Z,99044.04
2023-05-01T07:06:41.003Z,99044.45
2023-05-01T07:08:05.304Z,99044.52
2023-05-01T07:09:28.902Z,99049.16
2023-05-01T07:11:02.820Z,99046.18
2023-05-01T07:12:24.416Z,99043.39
2023-05-01T07:13:46.203Z,99041.13
2023-05-01T07:15:10.038Z,99040.73
2023-05-01T07:16:32.439Z,99044.59
2023-05-01T07:18:05.992Z,99041.96
2023-05-01T07:19:39.503Z,99040.83
2023-05-01T07:21:12.941Z,99036.36
2023-05-01T07:22:48.541Z,99044.61
2023-05-01T07:24:10.344Z,99039.56
2023-05-01T07:25:46.188Z,99045.56
2023-05-01T07:27:36.486Z,99044.81
2023-05-01T07:29:17.598Z,99048.39
2023-05-01T07:31:03.551Z,99045.77
2023-05-01T07:32:48.424Z,99042.39
2023-05-01T07:34:21.901Z,99049.31
2023-05-01T07:35:43.621Z,99053.86
2023-05-01T07:37:28.832Z,99052.61
2023-05-01T07:39:03.422Z,99053.16
2023-05-01T07:40:52.225Z,99049.89
2023-05-01T07:42:26.193Z,99047.55
2023-05-01T07:43:59.885Z,99048.73
2023-05-01T07:45:44.879Z,99040.35
2023-05-01T07:47:08.975Z,99049.79
2023-05-01T07:48:43.664Z,99051.60
2023-05-01T07:50:28.815Z,99051.86
2023-05-01T07:52:04.412Z,99054.78
2023-05-01T07:53:35.138Z,99052.09
2023-05-01T07:55:15.930Z,99051.89
2023-05-01T07:56:37.855Z,99053.05
2023-05-01T07:58:06.985Z,99052.96
2023-05-01T07:59:28.768Z,99055.25
2023-05-01T08:00:53.158Z,99050.37
2023-05-01T08:02:14.983Z,99055.00
2023-05-01T08:03:37.175Z,99057.88
2023-05-01T08:05:14.513Z,99057.38
2023-05-01T08:06:36.219Z,99052.66
2023-05-01T08:07:58.338Z,99052.23
2023-05-01T08:09:27.177Z,99055.45
2023-05-01T08:10:49.323Z,99059.77
2023-05-01T08:12:11.231Z,99058.28
2023-05-01T08:13:35.250Z,99059.45
2023-05-01T08:14:57.164Z,99056.96
2023-05-01T08:16:21.907Z,99057.80
2023-05-01T08:17:51.410Z,99049.67
2023-05-01T08:19:13.042Z,99054.52
2023-05-01T08:20:34.636Z,99055.89
2023-05-01T08:23:55.032Z,99055.61
2023-05-01T08:25:24.621Z,99056.59
2023-05-01T08:26:46.772Z,99050.86
2023-05-01T08:28:10.614Z,99053.85
2023-05-01T08:29:34.710Z,99055.88
2023-05-01T08:30:58.936Z,99050.16
2023-05-01T08:32:25.210Z,99054.95
2023-05-01T08:33:47.264Z,99054.91
2023-05-01T08:35:09.759Z,99057.50
2023-05-01T08:36:32.701Z,99050.46
2023-05-01T08:37:54.646Z,99050.88
2023-05-01T08:39:16.141Z,99053.05
2023-05-01T08:40:40.941Z,99052.02
2023-05-01T08:42:02.761Z,99057.23
2023-05-01T08:43:27.337Z,99053.52
2023-05-01T08:44:51.704Z,99054.57
2023-05-01T08:46:16.174Z,99051.78
2023-05-01T08:47:40.926Z,99051.66
2023-05-01T08:49:05.796Z,99017.16
2023-05-01T08:50:27.488Z,99054.30
2023-05-01T08:51:50.100Z,99050.05
2023-05-01T08:53:43.072Z,99046.20
2023-05-01T08:55:07.894Z,99050.98
2023-05-01T08:56:29.517Z,99053.86
2023-05-01T08:57:51.391Z,99045.66
2023-05-01T08:59:15.788Z,99046.25
2023-05-01T09:00:49.535Z,99048.38
2023-05-01T09:02:14.273Z,99048.58
2023-05-01T09:03:37.869Z,99051.77
2023-05-01T09:05:01.879Z,99048.29
2023-05-01T09:06:47.312Z,99047.73
2023-05-01T09:08:18.858Z,99044.41
2023-05-01T09:09:42.971Z,99042.38
2023-05-01T09:11:16.502Z,99044.67
2023-05-01T09:12:41.061Z,99043.67
2023-05-01T09:14:17.630Z,99040.70
2023-05-01T09:15:46.663Z,99039.38
2023-05-01T09:17:10.465Z,99036.64
2023-05-01T09:18:32.298Z,99033.65
2023-05-01T09:20:01.321Z,99037.23
2023-05-01T09:21:25.607Z,99037.71
2023-05-01T09:23:04.157Z,99034.97
2023-05-01T09:24:35.495Z,99034.43
2023-05-01T09:26:04.606Z,99028.61
2023-05-01T09:27:28.380Z,99031.24
2023-05-01T09:28:59.889Z,99027.10
2023-05-01T09:30:28.657Z,99029.42
2023-05-01T09:31:58.079Z,99028.35
2023-05-01T09:33:24.515Z,99026.20
2023-05-01T09:34:49.080Z,99029.55
2023-05-01T09:36:11.010Z,99021.29
2023-05-01T09:37:32.752Z,99026.21
2023-05-01T09:38:54.219Z,99025.33
2023-05-01T09:40:17.869Z,99023.16
2023-05-01T09:41:41.905Z,99020.15
2023-05-01T09:43:15.571Z,99019.04
2023-05-01T09:44:48.967Z,99016.69
2023-05-01T09:46:13.257Z,99018.27
2023-05-01T09:47:37.053Z,99017.09
2023-05-01T09:49:06.087Z,99019.86
2023-05-01T09:50:30.083Z,99010.67
2023-05-01T09:51:52.497Z,99015.77
2023-05-01T09:53:21.430Z,99012.10
2023-05-01T09:54:55.077Z,99011.45
2023-05-01T09:56:18.034Z,99014.17
2023-05-01T09:57:39.673Z,99008.42
2023-05-01T09:59:12.717Z,99000.27
2023-05-01T10:00:34.317Z,99014.00
2023-05-01T10:02:05.903Z,99013.34
2023-05-01T10:03:39.779Z,99010.13
2023-05-01T10:05:13.858Z,99004.75
2023-05-01T10:06:47.829Z,99002.27
2023-05-01T10:08:14.758Z,99003.73
2023-05-01T10:09:50.553Z,99000.50
2023-05-01T10:11:20.156Z,99000.29
2023-05-01T10:12:44.069Z,98990.44
2023-05-01T10:14:18.480Z,98999.69
2023-05-01T10:15:55.936Z,98998.44
2023-05-01T10:17:22.690Z,98997.81
2023-05-01T10:18:58.214Z,98995.98
2023-05-01T10:20:22.436Z,98995.04
2023-05-01T10:21:56.053Z,98991.78
2023-05-01T10:23:17.568Z,98993.47
2023-05-01T10:24:52.097Z,98989.14
2023-05-01T10:26:29.101Z,98983.66
2023-05-01T10:27:51.199Z,98985.16
2023-05-01T10:29:13.422Z,98980.08
2023-05-01T10:30:37.939Z,98980.42
2023-05-01T10:32:11.856Z,98978.11
2023-05-01T10:33:57.034Z,98976.31
2023-05-01T10:35:42.088Z,98975.86
2023-05-01T10:37:17.389Z,98971.20
2023-05-01T10:38:48.607Z,98969.88
2023-05-01T10:40:12.458Z,98973.67
2023-05-01T10:41:45.962Z,98972.83
2023-05-01T10:43:27.575Z,98973.06
2023-05-01T10:44:57.497Z,98974.80
2023-05-01T10:46:21.757Z,98966.67
2023-05-01T10:47:59.406Z,98967.68
2023-05-01T10:49:41.084Z,98966.98
2023-05-01T10:51:27.784Z,98965.39
2023-05-01T10:53:01.971Z,98961.01
2023-05-01T10:54:26.643Z,98965.35
2023-05-01T10:55:50.930Z,98963.02
2023-05-01T10:57:15.237Z,98962.18
2023-05-01T10:58:56.477Z,98959.80
2023-05-01T11:00:41.058Z,98959.58
2023-05-01T11:02:14.373Z,98958.55
2023-05-01T11:03:57.091Z,98956.54
2023-05-01T11:05:32.175Z,98950.61
2023-05-01T11:07:04.194Z,98940.77
2023-05-01T11:08:47.445Z,98942.85
2023-05-01T11:10:23.176Z,98936.67
2023-05-01T11:11:56.557Z,98940.75
2023-05-01T11:13:31.911Z,98945.14
2023-05-01T11:15:05.807Z,98944.69
2023-05-01T11:16:38.953Z,98946.09
2023-05-01T11:18:12.182Z,98941.18
2023-05-01T11:19:41.357Z,98940.73
2023-05-01T11:21:35.092Z,98938.15
2023-05-01T11:23:10.308Z,98933.58
2023-05-01T11:24:55.678Z,98932.11
2023-05-01T11:26:31.214Z,98925.83
2023-05-01T11:28:06.843Z,98926.69
2023-05-01T11:29:36.011Z,98923.66
2023-05-01T11:31:11.599Z,98917.64
2023-05-01T11:32:47.731Z,98922.68
2023-05-01T11:34:14.099Z,98917.95
2023-05-01T11:35:38.017Z,98916.10
2023-05-01T11:37:11.607Z,98913.27
2023-05-01T11:38:46.988Z,98911.04
2023-05-01T11:40:20.173Z,98911.48
2023-05-01T11:42:05.355Z,98911.17
2023-05-01T11:43:41.312Z,98908.16
2023-05-01T11:45:26.248Z,98915.77
2023-05-01T11:47:01.179Z,98908.20
2023-05-01T11:48:22.979Z,98902.79
2023-05-01T11:49:57.627Z,98903.48
2023-05-01T11:51:37.820Z,98897.11
2023-05-01T11:53:23.450Z,98896.73
2023-05-01T11:55:08.537Z,98895.41
2023-05-01T11:56:45.556Z,98886.55
2023-05-01T11:58:14.797Z,98878.06
2023-05-01T11:59:48.278Z,98882.79
2023-05-01T12:01:21.516Z,98879.88
2023-05-01T12:02:55.681Z,98878.27
2023-05-01T12:04:32.285Z,98880.54
2023-05-01T12:06:18.653Z,98878.33
2023-05-01T12:07:59.808Z,98876.09
2023-05-01T12:09:21.433Z,98872.71
2023-05-01T12:10:57.322Z,98870.86
2023-05-01T12:12:19.101Z,98868.81
2023-05-01T12:13:58.660Z,98866.44
2023-05-01T12:15:32.239Z,98866.41
2023-05-01T12:17:17.426Z,98870.09
2023-05-01T12:19:02.673Z,98858.49
2023-05-01T12:20:36.624Z,98871.98
2023-05-01T12:22:17.131Z,98870.48
2023-05-01T12:23:58.248Z,98865.61
2023-05-01T12:25:33.963Z,98858.41
2023-05-01T12:26:55.806Z,98853.02
2023-05-01T12:28:20.356Z,98853.80
2023-05-01T12:29:54.506Z,98854.60
2023-05-01T12:31:16.519Z,98853.70
2023-05-01T12:32:57.170Z,98852.23
2023-05-01T12:34:21.188Z,98850.91
2023-05-01T12:35:50.440Z,98847.11
2023-05-01T12:37:14.837Z,98848.61
2023-05-01T12:39:00.314Z,98851.24
2023-05-01T12:40:36.284Z,98849.81
2023-05-01T12:42:00.818Z,98840.88
2023-05-01T12:43:25.216Z,98834.52
2023-05-01T12:45:00.578Z,98834.23
2023-05-01T12:46:31.978Z,98832.44
2023-05-01T12:47:56.014Z,98830.65
2023-05-01T12:49:20.297Z,98826.13
2023-05-01T12:50:53.878Z,98824.30
2023-05-01T12:52:28.145Z,98818.33
2023-05-01T12:53:57.157Z,98822.59
2023-05-01T12:55:30.646Z,98822.98
2023-05-01T12:56:58.257Z,98819.05
2023-05-01T12:58:22.456Z,98820.27
2023-05-01T12:59:54.498Z,98814.66
2023-05-01T13:01:18.565Z,98820.14
2023-05-01T13:02:55.168Z,98811.73
2023-05-01T13:04:28.962Z,98810.73
2023-05-01T13:05:58.456Z,98808.10
2023-05-01T13:07:22.495Z,98805.32
2023-05-01T13:08:44.522Z,98804.47
2023-05-01T13:10:35.161Z,98801.61
2023-05-01T13:12:05.652Z,98798.56
2023-05-01T13:13:35.154Z,98791.33
2023-05-01T13:15:04.297Z,98787.45
2023-05-01T13:16:49.834Z,98795.59
2023-05-01T13:18:11.559Z,98786.09
2023-05-01T13:19:40.711Z,98785.85
2023-05-01T13:21:27.316Z,98789.98
2023-05-01T13:23:02.648Z,98788.88
2023-05-01T13:24:36.169Z,98789.05
2023-05-01T13:26:30.251Z,98790.91
2023-05-01T13:27:52.411Z,98786.02
2023-05-01T13:29:23.551Z,98786.61
2023-05-01T13:30:57.149Z,98782.98
2023-05-01T13:32:21.387Z,98779.41
2023-05-01T13:33:54.903Z,98776.45
2023-05-01T13:35:39.722Z,98774.68
2023-05-01T13:37:11.604Z,98771.02
2023-05-01T13:38:37.861Z,98768.91
2023-05-01T13:40:11.370Z,98769.15
2023-05-01T13:41:40.664Z,98770.16
2023-05-01T13:43:17.137Z,98766.69
2023-05-01T13:44:58.084Z,98768.19
2023-05-01T13:46:22.259Z,98767.17
2023-05-01T13:48:06.024Z,98764.69
2023-05-01T13:49:39.443Z,98761.38
2023-05-01T13:51:20.579Z,98756.15
2023-05-01T13:52:43.488Z,98743.44
2023-05-01T13:54:16.903Z,98750.80
2023-05-01T13:55:50.619Z,98749.80
2023-05-01T13:57:15.621Z,98746.70
2023-05-01T13:58:39.337Z,98744.25
2023-05-01T14:00:05.792Z,98744.83
2023-05-01T14:01:46.163Z,98740.16
2023-05-01T14:03:10.499Z,98743.37
2023-05-01T14:04:34.753Z,98737.34
2023-05-01T14:06:06.419Z,98736.91
2023-05-01T14:07:53.123Z,98732.15
2023-05-01T14:09:17.282Z,98731.67
2023-05-01T14:11:00.140Z,98729.45
2023-05-01T14:12:31.500Z,98721.02
2023-05-01T14:14:05.181Z,98716.79
2023-05-01T14:15:55.322Z,98723.08
2023-05-01T14:17:28.895Z,98718.73
2023-05-01T14:19:09.538Z,98720.45
2023-05-01T14:20:43.250Z,98722.04
2023-05-01T14:22:28.173Z,98713.91
2023-05-01T14:24:01.747Z,98710.58
2023-05-01T14:25:35.299Z,98711.93
2023-05-01T14:27:01.778Z,98711.36
2023-05-01T14:28:31.376Z,98705.40
2023-05-01T14:30:04.918Z,98708.86
2023-05-01T14:31:27.559Z,98704.66
2023-05-01T14:32:54.297Z,98699.02
2023-05-01T14:34:16.037Z,98703.37
2023-05-01T14:35:38.021Z,98701.75
2023-05-01T14:36:59.831Z,98700.29
2023-05-01T14:38:21.633Z,98704.31
2023-05-01T14:39:43.310Z,98703.16
2023-05-01T14:41:04.785Z,98701.31
2023-05-01T14:42:26.766Z,98703.16
2023-05-01T14:43:51.106Z,98703.33
2023-05-01T14:45:13.163Z,98689.14
2023-05-01T14:46:47.265Z,98693.40
2023-05-01T14:48:20.739Z,98695.95
2023-05-01T14:49:56.909Z,98694.67
2023-05-01T14:51:32.795Z,98696.89
2023-05-01T14:53:02.056Z,98693.80
2023-05-01T14:54:46.877Z,98689.30
2023-05-01T14:56:08.243Z,98693.13
2023-05-01T14:57:37.431Z,98687.95
2023-05-01T14:59:22.749Z,98694.65
2023-05-01T15:00:49.405Z,98690.63
2023-05-01T15:02:23.632Z,98683.23
2023-05-01T15:04:09.188Z,98681.38
2023-05-01T15:05:54.258Z,98674.33
2023-05-01T15:07:16.613Z,98669.45
2023-05-01T15:08:45.690Z,98669.11
2023-05-01T15:10:16.877Z,98669.45
2023-05-01T15:11:50.560Z,98670.40
2023-05-01T15:13:24.212Z,98669.70
2023-05-01T15:14:58.009Z,98675.30
2023-05-01T15:16:38.881Z,98672.25
2023-05-01T15:18:10.089Z,98670.41
2023-05-01T15:19:31.800Z,98677.64
2023-05-01T15:21:05.537Z,98675.77
2023-05-01T15:22:27.105Z,98671.67
2023-05-01T15:23:51.310Z,98667.02
2023-05-01T15:25:24.960Z,98670.45
2023-05-01T15:26:58.443Z,98663.86
2023-05-01T15:28:24.669Z,98661.26
2023-05-01T15:30:10.424Z,98663.17
2023-05-01T15:32:11.275Z,98657.92
2023-05-01T15:33:40.894Z,98658.14
2023-05-01T15:35:10.448Z,98652.05
2023-05-01T15:36:54.617Z,98653.77
2023-05-01T15:38:18.349Z,98652.17
2023-05-01T15:39:42.157Z,98647.42
2023-05-01T15:41:17.561Z,98645.80
2023-05-01T15:42:54.497Z,98634.89
2023-05-01T15:44:18.888Z,98642.27
2023-05-01T15:46:05.759Z,98641.59
2023-05-01T15:47:41.667Z,98641.50
2023-05-01T15:49:03.737Z,98635.04
2023-05-01T15:50:32.532Z,98636.73
2023-05-01T15:52:01.415Z,98640.11
2023-05-01T15:53:25.565Z,98640.94
2023-05-01T15:54:59.070Z,98639.02
2023-05-01T15:56:23.167Z,98626.57
2023-05-01T15:57:57.164Z,98628.09
2023-05-01T15:59:32.266Z,98628.50
2023-05-01T16:01:06.046Z,98628.27
2023-05-01T16:02:50.971Z,98628.42
2023-05-01T16:04:17.369Z,98624.64
2023-05-01T16:05:53.065Z,98626.89
2023-05-01T16:07:27.769Z,98626.66
2023-05-01T16:08:51.864Z,98627.46
2023-05-01T16:10:32.556Z,98626.39
2023-05-01T16:12:06.037Z,98612.85
2023-05-01T16:13:39.877Z,98621.10
2023-05-01T16:15:04.067Z,98619.75
2023-05-01T16:16:25.520Z,98614.30
2023-05-01T16:17:55.244Z,98616.04
2023-05-01T16:19:19.109Z,98615.20
2023-05-01T16:20:41.114Z,98611.41
2023-05-01T16:22:03.059Z,98619.28
2023-05-01T16:23:37.002Z,98619.94
2023-05-01T16:25:06.592Z,98618.90
2023-05-01T16:26:30.925Z,98617.36
2023-05-01T16:28:12.442Z,98618.35
2023-05-01T16:29:46.107Z,98615.84
2023-05-01T16:31:27.088Z,98618.11
2023-05-01T16:32:49.488Z,98614.75
2023-05-01T16:34:11.572Z,98619.05
2023-05-01T16:35:36.785Z,98611.34
2023-05-01T16:36:58.135Z,98614.33
2023-05-01T16:38:39.949Z,98612.67
2023-05-01T16:40:01.954Z,98607.21
2023-05-01T16:41:36.626Z,98603.23
2023-05-01T16:43:02.805Z,98604.60
2023-05-01T16:44:53.182Z,98601.30
2023-05-01T16:46:25.047Z,98601.70
2023-05-01T16:47:58.726Z,98598.31
2023-05-01T16:49:22.492Z,98596.05
2023-05-01T16:50:44.543Z,98596.48
2023-05-01T16:52:10.530Z,98595.84
2023-05-01T16:53:32.489Z,98596.98
2023-05-01T16:55:02.081Z,98596.16
2023-05-01T16:56:24.049Z,98597.37
2023-05-01T16:57:46.099Z,98600.20
2023-05-01T16:59:07.692Z,98601.15
2023-05-01T17:00:29.352Z,98599.35
2023-05-01T17:01:53.537Z,98600.73
2023-05-01T17:03:16.112Z,98595.70
2023-05-01T17:04:37.757Z,98596.75
2023-05-01T17:06:03.748Z,98596.95
2023-05-01T17:07:37.117Z,98596.13
2023-05-01T17:09:03.393Z,98595.66
2023-05-01T17:10:38.860Z,98594.96
2023-05-01T17:12:07.985Z,98595.20
2023-05-01T17:13:43.923Z,98593.20
2023-05-01T17:15:19.509Z,98592.95
2023-05-01T17:16:53.408Z,98591.62
2023-05-01T17:18:26.710Z,98593.69
2023-05-01T17:20:00.697Z,98594.96